Terminal Aerodrome Forecast
Issued by NWS

Home | Current Version | Previous Version | Text Only | Print | Product List | Glossary On
Versions: 1 2 3 4 5 6 7 8 9 10 11 12 13 14 15 16 17 18 19 20 21 22 23 24 25 26 27 28
000
FTUS42 KCAE 220856 AAB
TAFDNL
TAF AMD
KDNL 220856Z 2209/2306 VRB03KT 6SM BR SCT002
      TEMPO 2209/2213 2SM BR BKN002
     FM221300 VRB04KT P6SM SCT025
     FM221800 18006KT P6SM VCSH BKN035
     FM230000 19003KT P6SM SCT040=

USA.gov is the U.S. government's official web portal to all federal, state and local government web resources and services.